Time;durP1;ratioP1;P1;durP2;ratioP2;P2;SDS_P1;SDS_P2;PMS_P1;PMS_P2;Temp;Humidity;BMP_temperature;BMP_pressure;BME280_temperature;BME280_humidity;BME280_pressure;Samples;Min_cycle;Max_cycle;Signal;HPM_P1;HPM_P2
2022/04/21 00:00:39;;;;;;;9.80;7.43;;;7.80;99.90;;;;;;5105178;27;20463;-80
2022/04/21 00:03:05;;;;;;;9.50;7.45;;;7.80;99.90;;;;;;5107716;27;20039;-80
2022/04/21 00:05:35;;;;;;;10.55;7.18;;;7.80;99.90;;;;;;5124457;27;20099;-80
2022/04/21 00:08:01;;;;;;;10.50;8.18;;;7.70;99.90;;;;;;5106255;27;20486;-80
2022/04/21 00:10:28;;;;;;;9.20;6.68;;;7.70;99.90;;;;;;5125120;27;20039;-81
2022/04/21 00:12:54;;;;;;;9.27;7.32;;;7.70;99.90;;;;;;5107900;27;20039;-79
2022/04/21 00:15:21;;;;;;;12.50;8.05;;;7.70;99.90;;;;;;5107851;27;20051;-80
2022/04/21 00:17:47;;;;;;;9.85;7.93;;;7.70;99.90;;;;;;5115587;27;20130;-80
2022/04/21 00:20:13;;;;;;;9.73;7.95;;;7.70;99.90;;;;;;5100779;27;20043;-79
2022/04/21 00:25:23;;;;;;;10.02;8.20;;;7.60;99.90;;;;;;5109280;27;20077;-79
2022/04/21 00:27:49;;;;;;;9.90;8.27;;;7.50;99.90;;;;;;5106456;27;20043;-80
2022/04/21 00:30:17;;;;;;;9.77;7.97;;;7.50;99.90;;;;;;5093727;27;20102;-80
2022/04/21 00:32:43;;;;;;;10.90;8.20;;;7.60;99.90;;;;;;5118058;27;20784;-80
2022/04/21 00:35:13;;;;;;;12.35;8.00;;;7.50;99.90;;;;;;5086140;28;20512;-80
2022/04/21 00:37:54;;;;;;;11.02;8.32;;;7.50;99.90;;;;;;5080830;27;20052;-79
2022/04/21 00:40:22;;;;;;;9.63;7.55;;;7.50;99.90;;;;;;5110201;27;20054;-79
2022/04/21 00:42:48;;;;;;;10.60;8.32;;;7.60;99.90;;;;;;5086666;28;20054;-80
2022/04/21 00:45:15;;;;;;;13.98;8.57;;;7.50;99.90;;;;;;5107760;27;20046;-79
2022/04/21 00:47:43;;;;;;;10.25;8.32;;;7.60;99.90;;;;;;5076322;27;20485;-79
2022/04/21 00:50:15;;;;;;;10.32;7.78;;;7.60;99.90;;;;;;5078295;28;20102;-80
2022/04/21 00:52:41;;;;;;;9.60;8.32;;;7.60;99.90;;;;;;5106888;28;20051;-79
2022/04/21 00:55:08;;;;;;;11.90;8.85;;;7.50;99.90;;;;;;5098834;27;20366;-80
2022/04/21 00:57:35;;;;;;;10.20;8.50;;;7.50;99.90;;;;;;5109873;28;20118;-80
2022/04/21 01:00:04;;;;;;;11.38;8.20;;;7.50;99.90;;;;;;5101112;28;20085;-80
2022/04/21 01:02:46;;;;;;;11.85;8.85;;;7.50;99.90;;;;;;5096703;28;20043;-80
2022/04/21 01:05:25;;;;;;;10.50;8.77;;;7.50;99.90;;;;;;5108320;28;20486;-80
2022/04/21 01:07:51;;;;;;;12.32;8.50;;;7.50;99.90;;;;;;5119291;28;20043;-81
2022/04/21 01:10:17;;;;;;;9.65;8.65;;;7.40;99.90;;;;;;5091776;28;20504;-80
2022/04/21 01:12:43;;;;;;;11.38;9.27;;;7.40;99.90;;;;;;5091308;27;20048;-80
2022/04/21 01:15:10;;;;;;;11.07;8.68;;;7.40;99.90;;;;;;5122776;27;20031;-79
2022/04/21 01:17:38;;;;;;;10.70;9.40;;;7.30;99.90;;;;;;5116045;27;20039;-80
2022/04/21 01:20:05;;;;;;;12.60;9.25;;;7.40;99.90;;;;;;5128594;27;20050;-80
2022/04/21 01:22:32;;;;;;;10.43;8.50;;;7.40;99.90;;;;;;5109824;27;20054;-80
2022/04/21 01:25:01;;;;;;;11.95;9.38;;;7.40;99.90;;;;;;5128117;27;20066;-80
2022/04/21 01:27:31;;;;;;;10.57;9.48;;;7.40;99.90;;;;;;5127415;27;20092;-79
2022/04/21 01:29:58;;;;;;;14.40;9.93;;;7.30;99.90;;;;;;5127257;27;20262;-80
2022/04/21 01:32:27;;;;;;;11.02;9.88;;;7.40;99.90;;;;;;5109856;27;20078;-80
2022/04/21 01:34:52;;;;;;;11.43;10.10;;;7.40;99.90;;;;;;5126502;27;20559;-80
2022/04/21 01:42:47;;;;;;;11.52;10.13;;;7.30;99.90;;;;;;5108623;27;20106;-80
2022/04/21 01:45:14;;;;;;;13.40;10.60;;;7.20;99.90;;;;;;5093098;27;20051;-79
2022/04/21 01:47:39;;;;;;;13.60;10.95;;;7.20;99.90;;;;;;5124634;27;20055;-79
2022/04/21 01:50:07;;;;;;;13.48;11.02;;;7.10;99.90;;;;;;5127470;27;20054;-80
2022/04/21 01:52:39;;;;;;;12.35;10.13;;;7.00;99.90;;;;;;5090119;27;20044;-80
2022/04/21 01:55:06;;;;;;;15.07;11.27;;;7.00;99.90;;;;;;5127344;27;20477;-79
2022/04/21 01:57:32;;;;;;;13.65;11.18;;;7.00;99.90;;;;;;5109767;27;20498;-80
2022/04/21 01:59:58;;;;;;;12.23;10.98;;;6.90;99.90;;;;;;5093541;27;20051;-80
2022/04/21 02:02:24;;;;;;;13.45;11.80;;;6.90;99.90;;;;;;5072521;28;20044;-79
2022/04/21 02:04:50;;;;;;;12.57;11.23;;;6.90;99.90;;;;;;5074605;28;20073;-80
2022/04/21 02:07:17;;;;;;;14.38;11.60;;;6.90;99.90;;;;;;5109811;28;20050;-79
2022/04/21 02:09:45;;;;;;;12.38;11.02;;;6.80;99.90;;;;;;5095184;27;20058;-79
2022/04/21 02:12:11;;;;;;;14.25;11.38;;;6.70;99.90;;;;;;5112053;27;20050;-79
2022/04/21 02:14:37;;;;;;;13.85;11.80;;;6.70;99.90;;;;;;5110142;27;20051;-79
2022/04/21 02:17:05;;;;;;;15.88;12.60;;;6.60;99.90;;;;;;5089611;28;20071;-79
2022/04/21 02:19:35;;;;;;;14.05;12.55;;;6.60;99.90;;;;;;5105887;28;20055;-80
2022/04/21 02:22:01;;;;;;;17.05;12.68;;;6.70;99.90;;;;;;5107780;28;20051;-79
2022/04/21 02:24:27;;;;;;;14.98;13.45;;;6.70;99.90;;;;;;5073593;28;20134;-79
2022/04/21 02:26:53;;;;;;;17.13;13.38;;;6.70;99.90;;;;;;5089979;28;20055;-79
2022/04/21 02:29:19;;;;;;;16.60;13.50;;;6.70;99.90;;;;;;5107392;28;20153;-79
2022/04/21 02:31:45;;;;;;;16.27;13.13;;;6.70;99.90;;;;;;5106668;28;20138;-79
2022/04/21 02:34:10;;;;;;;16.42;13.93;;;6.80;99.90;;;;;;5090239;28;20036;-80
2022/04/21 02:36:37;;;;;;;16.15;13.07;;;6.70;99.90;;;;;;5116811;27;20050;-80
2022/04/21 02:39:05;;;;;;;16.38;12.98;;;6.80;99.90;;;;;;5127584;27;20046;-79
2022/04/21 02:41:34;;;;;;;15.82;12.77;;;6.80;99.90;;;;;;5127609;27;20078;-80
2022/04/21 02:44:00;;;;;;;16.00;13.75;;;6.80;99.90;;;;;;5092404;27;20138;-81
2022/04/21 02:46:29;;;;;;;14.43;12.57;;;6.80;99.90;;;;;;5105695;28;20142;-80
2022/04/21 02:49:01;;;;;;;15.20;13.73;;;6.80;99.90;;;;;;5117565;27;20045;-80
2022/04/21 02:51:29;;;;;;;15.95;13.73;;;6.80;99.90;;;;;;5128603;27;20062;-81
2022/04/21 02:59:25;;;;;;;14.35;12.77;;;6.80;99.90;;;;;;5106720;28;20458;-81
2022/04/21 03:01:51;;;;;;;14.57;13.13;;;6.80;99.90;;;;;;5105752;28;20415;-81
2022/04/21 03:04:17;;;;;;;15.45;13.38;;;6.80;99.90;;;;;;5106647;28;20087;-81
2022/04/21 03:06:42;;;;;;;16.77;14.48;;;6.80;99.90;;;;;;5074971;27;20051;-80
2022/04/21 03:09:08;;;;;;;16.77;13.35;;;6.80;99.90;;;;;;5127305;27;20066;-81
2022/04/21 03:11:34;;;;;;;16.75;14.63;;;6.80;99.90;;;;;;5092567;27;20047;-81
2022/04/21 03:14:00;;;;;;;14.98;13.50;;;6.70;99.90;;;;;;5127866;27;20107;-81
2022/04/21 03:16:26;;;;;;;16.55;13.88;;;6.70;99.90;;;;;;5105261;28;20183;-81
2022/04/21 03:18:51;;;;;;;16.08;13.70;;;6.70;99.90;;;;;;5118352;27;20058;-81
2022/04/21 03:24:20;;;;;;;14.90;13.38;;;6.70;99.90;;;;;;5105730;28;20104;-81
2022/04/21 03:26:49;;;;;;;15.23;13.63;;;6.60;99.90;;;;;;5098043;27;20050;-81
2022/04/21 03:29:16;;;;;;;15.40;13.77;;;6.60;99.90;;;;;;5092896;27;20054;-81
2022/04/21 03:31:43;;;;;;;15.93;14.25;;;6.50;99.90;;;;;;5109914;27;20050;-81
2022/04/21 03:34:13;;;;;;;16.80;15.07;;;6.50;99.90;;;;;;5109298;27;20628;-81
2022/04/21 03:36:50;;;;;;;16.08;14.38;;;6.50;99.90;;;;;;5108332;27;20050;-81
2022/04/21 03:39:21;;;;;;;16.10;14.50;;;6.50;99.90;;;;;;5128209;27;20035;-81
2022/04/21 03:41:53;;;;;;;15.70;14.00;;;6.40;99.90;;;;;;5109604;27;20055;-81
2022/04/21 03:44:20;;;;;;;16.15;14.35;;;6.40;99.90;;;;;;5094921;27;20043;-81
2022/04/21 03:46:45;;;;;;;16.27;14.57;;;6.40;99.90;;;;;;5107748;27;20058;-81
2022/04/21 03:49:11;;;;;;;15.73;13.05;;;6.40;99.90;;;;;;5109143;27;20042;-81
2022/04/21 03:51:37;;;;;;;17.42;15.02;;;6.30;99.90;;;;;;5122372;27;20086;-81
2022/04/21 03:54:04;;;;;;;16.33;14.63;;;6.30;99.90;;;;;;5117928;27;20039;-80
2022/04/21 03:56:30;;;;;;;17.55;13.88;;;6.30;99.90;;;;;;5089344;28;20489;-81
2022/04/21 03:58:59;;;;;;;17.05;14.55;;;6.30;99.90;;;;;;5087575;28;20054;-81
2022/04/21 04:01:25;;;;;;;15.77;14.20;;;6.30;99.90;;;;;;5110600;27;20519;-81
2022/04/21 04:03:51;;;;;;;17.15;15.05;;;6.20;99.90;;;;;;5108283;27;20058;-81
2022/04/21 04:11:52;;;;;;;17.17;15.35;;;6.20;99.90;;;;;;5105011;28;20126;-79
2022/04/21 04:14:19;;;;;;;19.45;16.70;;;6.20;99.90;;;;;;5071532;28;20555;-79
2022/04/21 04:16:45;;;;;;;19.00;16.02;;;6.20;99.90;;;;;;5091671;27;20052;-80
2022/04/21 04:19:11;;;;;;;17.00;15.30;;;6.10;99.90;;;;;;5106999;27;20051;-80
2022/04/21 04:21:38;;;;;;;18.92;16.13;;;6.10;99.90;;;;;;5111668;27;20378;-81
2022/04/21 04:24:04;;;;;;;17.27;15.48;;;6.00;99.90;;;;;;5094756;27;20579;-80
2022/04/21 04:26:33;;;;;;;17.70;15.90;;;6.10;99.90;;;;;;5111022;27;20055;-80
2022/04/21 04:29:00;;;;;;;18.55;16.67;;;6.00;99.90;;;;;;5111519;27;20098;-79
2022/04/21 04:31:25;;;;;;;17.52;15.73;;;6.00;99.90;;;;;;5146157;27;20514;-79
2022/04/21 04:33:51;;;;;;;18.73;16.83;;;5.90;99.90;;;;;;5112127;27;20043;-80
2022/04/21 04:36:17;;;;;;;20.60;16.80;;;5.90;99.90;;;;;;5110596;27;20049;-80
2022/04/21 04:38:44;;;;;;;18.20;16.27;;;5.90;99.90;;;;;;5111295;27;20507;-81
2022/04/21 04:43:55;;;;;;;18.70;16.77;;;5.90;99.90;;;;;;5100494;28;20062;-81
2022/04/21 04:46:35;;;;;;;18.10;16.20;;;5.90;99.90;;;;;;5123740;27;20035;-81
2022/04/21 04:49:06;;;;;;;17.45;15.77;;;5.90;99.90;;;;;;5126088;27;20078;-81
2022/04/21 04:51:38;;;;;;;17.77;15.85;;;5.90;99.90;;;;;;5107714;27;20061;-81
2022/04/21 04:54:06;;;;;;;18.05;16.25;;;6.00;99.90;;;;;;5103754;27;20050;-80
2022/04/21 04:56:35;;;;;;;18.00;15.27;;;6.00;99.90;;;;;;5128395;27;20043;-81
2022/04/21 04:59:01;;;;;;;17.73;15.82;;;6.00;99.90;;;;;;5111170;27;20129;-81
2022/04/21 05:01:39;;;;;;;18.08;16.17;;;6.00;99.90;;;;;;5106488;28;20108;-81
2022/04/21 05:04:13;;;;;;;17.20;15.45;;;6.00;99.90;;;;;;5111344;28;20393;-81
2022/04/21 05:06:44;;;;;;;18.35;15.05;;;6.10;99.90;;;;;;5110561;27;20047;-80
2022/04/21 05:09:13;;;;;;;17.95;16.10;;;6.10;99.90;;;;;;5097358;27;20047;-81
2022/04/21 05:11:41;;;;;;;17.95;16.10;;;6.10;99.90;;;;;;5115337;27;20493;-81
2022/04/21 05:14:07;;;;;;;17.35;15.35;;;6.20;99.90;;;;;;5119587;27;20101;-81
2022/04/21 05:16:36;;;;;;;16.58;14.82;;;6.20;99.90;;;;;;5098105;27;20047;-81
2022/04/21 05:19:04;;;;;;;17.45;15.65;;;6.30;99.90;;;;;;5121892;27;20443;-80
2022/04/21 05:21:30;;;;;;;17.90;15.43;;;6.40;99.90;;;;;;5123280;27;20581;-81
2022/04/21 05:23:58;;;;;;;16.17;14.57;;;6.40;99.90;;;;;;5126888;27;20047;-80
2022/04/21 05:26:25;;;;;;;17.30;15.18;;;6.50;99.90;;;;;;5125913;27;20054;-81
2022/04/21 05:28:52;;;;;;;16.80;15.02;;;6.60;99.90;;;;;;5123480;27;20073;-81
2022/04/21 05:31:18;;;;;;;16.33;14.18;;;6.70;99.90;;;;;;5138470;27;20051;-81
2022/04/21 05:33:45;;;;;;;16.92;15.18;;;6.80;99.90;;;;;;5122241;27;20114;-81
2022/04/21 05:36:11;;;;;;;14.80;13.18;;;6.80;99.90;;;;;;5101127;27;20063;-80
2022/04/21 05:38:37;;;;;;;15.00;13.43;;;6.90;99.90;;;;;;5112503;27;20075;-81
2022/04/21 05:41:04;;;;;;;14.02;12.63;;;7.00;99.90;;;;;;5098607;27;20039;-80
2022/04/21 05:43:44;;;;;;;14.05;12.63;;;7.10;99.90;;;;;;5104037;27;20119;-81
2022/04/21 05:46:15;;;;;;;14.52;13.02;;;7.20;99.90;;;;;;5080151;27;20054;-80
2022/04/21 05:48:42;;;;;;;15.38;13.30;;;7.20;99.90;;;;;;5109707;27;20125;-82
2022/04/21 05:51:21;;;;;;;14.82;12.63;;;7.40;99.90;;;;;;5102786;27;20125;-81
2022/04/21 05:53:48;;;;;;;15.75;13.60;;;7.50;99.90;;;;;;5102346;27;20051;-81
2022/04/21 05:56:15;;;;;;;14.23;12.80;;;7.50;99.90;;;;;;5123699;27;20130;-81
2022/04/21 05:58:41;;;;;;;12.80;11.52;;;7.60;99.90;;;;;;5122930;27;20051;-80
2022/04/21 06:01:08;;;;;;;14.30;11.90;;;7.70;99.90;;;;;;5119771;27;20042;-80
2022/04/21 06:03:35;;;;;;;14.90;12.23;;;7.70;99.90;;;;;;5136797;27;20096;-81
2022/04/21 06:06:01;;;;;;;14.13;12.68;;;7.80;99.90;;;;;;5117953;27;20444;-80
2022/04/21 06:08:28;;;;;;;14.57;12.63;;;7.90;99.90;;;;;;5109325;27;20126;-81
2022/04/21 06:10:56;;;;;;;14.68;12.40;;;8.00;99.90;;;;;;5111942;27;20302;-81
2022/04/21 06:13:23;;;;;;;14.43;11.93;;;8.00;99.90;;;;;;5121600;27;20051;-81
2022/04/21 06:15:49;;;;;;;12.18;10.93;;;8.10;99.90;;;;;;5111884;27;20125;-81
2022/04/21 06:18:18;;;;;;;11.95;10.60;;;8.20;99.90;;;;;;5122836;27;20101;-81
2022/04/21 06:20:44;;;;;;;11.38;9.70;;;8.30;99.90;;;;;;5116797;27;20129;-81
2022/04/21 06:23:09;;;;;;;10.73;9.52;;;8.40;99.90;;;;;;5142212;27;20078;-81
2022/04/21 06:25:36;;;;;;;9.80;8.48;;;8.60;99.90;;;;;;5120317;27;20517;-80
2022/04/21 06:28:05;;;;;;;10.48;9.25;;;8.70;99.90;;;;;;5120118;27;20370;-81
2022/04/21 06:30:31;;;;;;;11.25;9.77;;;8.80;99.90;;;;;;5137203;27;20374;-81
2022/04/21 06:33:00;;;;;;;10.00;8.85;;;8.90;99.90;;;;;;5104937;27;20042;-80
2022/04/21 06:35:27;;;;;;;9.48;8.40;;;9.00;99.90;;;;;;5118773;27;20074;-81
2022/04/21 06:37:56;;;;;;;10.38;8.10;;;9.10;99.90;;;;;;5117923;27;20038;-80
2022/04/21 06:40:23;;;;;;;9.85;7.95;;;9.20;99.90;;;;;;5102444;27;20052;-81
2022/04/21 06:42:49;;;;;;;11.10;8.60;;;9.30;99.90;;;;;;5107195;27;20151;-80
2022/04/21 06:48:04;;;;;;;8.07;6.68;;;9.50;99.90;;;;;;5128914;27;20043;-81
2022/04/21 06:50:29;;;;;;;8.57;7.22;;;9.70;99.90;;;;;;5147603;27;20467;-80
2022/04/21 06:52:55;;;;;;;10.32;7.75;;;9.80;99.90;;;;;;5108591;27;20107;-80
2022/04/21 06:55:21;;;;;;;7.93;6.38;;;9.90;99.90;;;;;;5107765;27;20431;-80
2022/04/21 06:57:47;;;;;;;6.78;5.82;;;10.00;99.90;;;;;;5110307;27;20049;-80
2022/04/21 07:00:14;;;;;;;8.00;6.38;;;10.10;99.90;;;;;;5139924;27;20374;-80
2022/04/21 07:02:41;;;;;;;9.00;5.72;;;10.20;99.90;;;;;;5089614;27;20050;-81
2022/04/21 07:05:09;;;;;;;8.35;5.95;;;10.30;99.90;;;;;;5090665;27;20123;-80
2022/04/21 07:07:35;;;;;;;7.38;4.63;;;10.50;99.90;;;;;;5104901;27;20075;-81
2022/04/21 07:10:05;;;;;;;8.93;4.28;;;10.60;99.90;;;;;;5085426;27;20050;-80
2022/04/21 07:12:31;;;;;;;5.57;3.92;;;10.80;99.90;;;;;;5086156;27;20047;-77
2022/04/21 07:15:03;;;;;;;6.38;3.95;;;11.00;99.90;;;;;;5105461;27;20043;-76
2022/04/21 07:17:29;;;;;;;5.40;3.67;;;11.10;99.90;;;;;;5139510;27;20520;-81
2022/04/21 07:19:55;;;;;;;5.82;3.55;;;11.30;98.30;;;;;;5106550;27;20058;-82
2022/04/21 07:22:25;;;;;;;4.80;3.60;;;11.30;99.40;;;;;;5104863;27;20039;-80
2022/04/21 07:24:55;;;;;;;8.02;3.80;;;11.40;99.00;;;;;;5120153;27;20058;-81
2022/04/21 07:27:21;;;;;;;5.80;3.72;;;11.50;99.70;;;;;;5104340;27;20039;-81
2022/04/21 07:29:47;;;;;;;5.80;3.55;;;11.60;99.50;;;;;;5127850;27;20054;-79
2022/04/21 07:32:13;;;;;;;4.60;3.28;;;11.80;98.50;;;;;;5110686;27;20042;-81
2022/04/21 07:34:39;;;;;;;6.18;3.47;;;11.90;98.60;;;;;;5111395;27;20066;-77
2022/04/21 07:37:07;;;;;;;5.20;3.33;;;12.10;93.00;;;;;;5143441;27;20049;-81
2022/04/21 07:39:38;;;;;;;5.78;3.42;;;12.20;93.70;;;;;;5115190;27;20054;-82
2022/04/21 07:42:08;;;;;;;5.35;3.28;;;12.20;94.10;;;;;;5113639;27;20553;-78
2022/04/21 07:44:35;;;;;;;4.82;3.13;;;12.30;94.80;;;;;;5100794;27;20103;-81
2022/04/21 07:47:01;;;;;;;3.30;2.53;;;12.40;95.20;;;;;;5085530;27;20089;-80
2022/04/21 07:49:47;;;;;;;4.22;3.00;;;12.50;91.70;;;;;;5102021;27;20039;-80
2022/04/21 07:55:19;;;;;;;3.53;2.53;;;12.60;90.80;;;;;;5073291;27;20102;-81
2022/04/21 07:57:47;;;;;;;6.93;3.50;;;12.70;87.10;;;;;;5123837;27;20050;-78
2022/04/21 08:00:15;;;;;;;4.10;2.80;;;12.80;85.90;;;;;;5109943;27;20034;-76
2022/04/21 08:02:43;;;;;;;5.13;3.10;;;12.90;81.90;;;;;;5098786;27;20121;-81
2022/04/21 08:05:14;;;;;;;4.72;3.33;;;12.90;83.20;;;;;;5117986;27;20107;-82
2022/04/21 08:07:40;;;;;;;4.78;3.17;;;13.00;87.10;;;;;;5121760;27;20411;-81
2022/04/21 08:10:12;;;;;;;6.15;3.10;;;13.10;89.00;;;;;;5124146;27;20099;-79
2022/04/21 08:12:46;;;;;;;4.75;3.30;;;13.20;86.60;;;;;;5089719;27;20050;-78
2022/04/21 08:15:33;;;;;;;5.97;3.78;;;13.40;82.60;;;;;;5122951;27;20039;-81
2022/04/21 08:18:04;;;;;;;4.90;3.53;;;13.40;85.10;;;;;;5133647;27;20043;-81
2022/04/21 08:20:34;;;;;;;6.85;3.72;;;13.50;83.10;;;;;;5086656;27;20051;-78
2022/04/21 08:23:00;;;;;;;;;;;13.60;82.20;;;;;;5111458;27;20047;-80
2022/04/21 08:33:39;;;;;;;5.25;3.75;;;14.00;78.60;;;;;;5111098;27;20052;-79
2022/04/21 08:36:05;;;;;;;5.97;3.28;;;14.10;81.00;;;;;;5102513;27;20042;-77
2022/04/21 08:38:31;;;;;;;5.55;3.28;;;14.20;79.60;;;;;;5116969;27;20523;-79
2022/04/21 08:41:00;;;;;;;5.65;3.10;;;14.30;74.10;;;;;;5119828;27;20084;-79
2022/04/21 08:43:27;;;;;;;5.13;3.28;;;14.30;76.10;;;;;;5123984;27;20039;-77
2022/04/21 08:45:54;;;;;;;5.47;3.10;;;14.40;74.50;;;;;;5105273;27;20494;-75
2022/04/21 08:48:25;;;;;;;4.90;3.30;;;14.40;74.90;;;;;;5125173;27;20122;-78
2022/04/21 08:50:51;;;;;;;4.63;3.38;;;14.50;77.40;;;;;;5105222;27;20126;-76
2022/04/21 08:53:26;;;;;;;6.18;3.95;;;14.60;77.60;;;;;;5102843;28;20436;-79
2022/04/21 08:55:53;;;;;;;6.47;4.18;;;14.70;78.10;;;;;;5120044;27;20054;-79
2022/04/21 08:58:20;;;;;;;7.00;4.20;;;14.80;77.40;;;;;;5105843;27;20035;-82
2022/04/21 09:00:46;;;;;;;5.55;3.50;;;14.90;78.90;;;;;;5088227;28;20527;-79
2022/04/21 09:03:13;;;;;;;6.18;3.70;;;15.00;75.20;;;;;;5124091;27;20043;-80
2022/04/21 09:05:39;;;;;;;6.05;3.80;;;15.00;72.90;;;;;;5122621;27;20047;-75
2022/04/21 09:08:16;;;;;;;4.72;3.20;;;15.00;74.90;;;;;;5123476;28;20047;-79
2022/04/21 09:10:43;;;;;;;7.53;3.67;;;15.10;72.70;;;;;;5103988;27;20047;-79
2022/04/21 09:13:08;;;;;;;7.88;3.67;;;15.20;72.90;;;;;;5104212;28;20046;-77
2022/04/21 09:15:37;;;;;;;6.65;3.60;;;15.20;71.40;;;;;;5088864;28;20046;-76
2022/04/21 09:18:11;;;;;;;4.80;3.80;;;15.20;72.50;;;;;;5116452;28;20043;-79
2022/04/21 09:20:39;;;;;;;6.82;3.45;;;15.20;71.80;;;;;;5080471;28;20357;-78
2022/04/21 09:23:12;;;;;;;5.80;3.70;;;15.30;70.00;;;;;;5097215;28;20031;-77
2022/04/21 09:25:45;;;;;;;6.43;3.22;;;15.30;70.50;;;;;;5096765;28;20541;-79
2022/04/21 09:28:35;;;;;;;7.15;3.47;;;15.50;72.00;;;;;;5101544;28;20503;-77
2022/04/21 09:31:01;;;;;;;4.60;3.40;;;15.60;68.20;;;;;;5088295;28;20625;-80
2022/04/21 09:33:42;;;;;;;4.85;3.70;;;15.60;70.20;;;;;;5075789;28;20044;-76
2022/04/21 09:36:09;;;;;;;6.55;3.38;;;15.70;66.80;;;;;;5090101;28;20210;-76
2022/04/21 09:38:35;;;;;;;5.38;3.13;;;15.80;66.40;;;;;;5094951;27;20505;-80
2022/04/21 09:41:09;;;;;;;3.97;3.08;;;15.80;68.40;;;;;;5070598;28;20048;-79
2022/04/21 09:43:37;;;;;;;7.93;3.58;;;15.90;66.00;;;;;;5096755;27;20423;-81
2022/04/21 09:46:19;;;;;;;6.90;3.47;;;15.90;65.40;;;;;;5084089;28;20044;-77
2022/04/21 09:48:46;;;;;;;4.63;3.10;;;15.90;64.60;;;;;;5087543;28;20410;-79
2022/04/21 09:51:13;;;;;;;4.72;3.08;;;15.90;63.80;;;;;;5097745;28;20052;-76
2022/04/21 09:53:59;;;;;;;4.05;2.85;;;15.90;63.30;;;;;;5081781;27;20123;-81
2022/04/21 09:56:40;;;;;;;6.35;3.45;;;16.00;66.60;;;;;;5096178;27;20528;-82
2022/04/21 09:59:08;;;;;;;;;;;16.00;62.70;;;;;;5103625;27;20087;-79
2022/04/21 10:01:37;;;;;;;4.45;3.15;;;15.90;64.60;;;;;;5112033;27;20290;-80
2022/04/21 10:04:07;;;;;;;5.17;2.93;;;16.10;63.30;;;;;;5100454;27;20537;-80
2022/04/21 10:06:38;;;;;;;6.38;3.00;;;16.10;62.70;;;;;;5111611;27;20398;-79
2022/04/21 10:09:05;;;;;;;5.00;3.00;;;16.30;59.60;;;;;;5109544;27;20393;-77
2022/04/21 10:11:31;;;;;;;4.97;2.90;;;16.40;60.00;;;;;;5115185;27;20043;-81
2022/04/21 10:13:58;;;;;;;6.68;3.10;;;16.40;61.90;;;;;;5096708;27;20102;-76
2022/04/21 10:16:28;;;;;;;4.07;2.80;;;16.50;60.60;;;;;;5104679;27;20031;-80
2022/04/21 10:18:57;;;;;;;6.65;3.70;;;16.50;61.00;;;;;;5120350;27;20043;-81
2022/04/21 10:21:29;;;;;;;4.32;3.03;;;16.50;62.10;;;;;;5124088;27;20122;-80
2022/04/21 10:23:56;;;;;;;3.88;2.90;;;16.50;61.60;;;;;;5123775;27;20054;-81
2022/04/21 10:26:42;;;;;;;8.32;2.88;;;16.50;60.70;;;;;;5124513;27;20488;-81
2022/04/21 10:29:22;;;;;;;6.05;3.22;;;16.50;60.00;;;;;;5124045;27;20118;-81
2022/04/21 10:32:03;;;;;;;4.95;3.00;;;16.70;59.00;;;;;;5126665;27;20046;-81
2022/04/21 10:34:45;;;;;;;4.03;2.97;;;16.60;58.90;;;;;;5124427;27;20094;-77
2022/04/21 10:37:21;;;;;;;5.38;3.00;;;16.70;58.00;;;;;;5123208;27;20086;-79
2022/04/21 10:40:21;;;;;;;5.68;2.97;;;16.70;57.50;;;;;;5128462;27;20390;-76
2022/04/21 10:42:57;;;;;;;5.20;3.17;;;16.80;56.00;;;;;;5125914;27;20062;-78
2022/04/21 10:45:28;;;;;;;4.45;2.78;;;16.70;57.00;;;;;;5126045;27;20063;-78
2022/04/21 10:48:12;;;;;;;9.80;3.20;;;16.70;57.40;;;;;;5124293;27;20081;-79
2022/04/21 10:50:43;;;;;;;6.00;3.33;;;16.80;55.00;;;;;;5098692;27;20055;-75
2022/04/21 10:58:41;;;;;;;4.07;2.72;;;17.00;53.70;;;;;;5117624;27;20328;-74
2022/04/21 11:01:15;;;;;;;4.50;2.63;;;17.00;54.10;;;;;;5122686;27;20723;-79
2022/04/21 11:03:42;;;;;;;4.20;2.88;;;17.10;53.00;;;;;;5097924;27;20448;-78
2022/04/21 11:06:12;;;;;;;4.93;3.08;;;17.10;52.70;;;;;;5119342;27;20051;-80
2022/04/21 11:08:38;;;;;;;4.10;2.70;;;17.10;53.10;;;;;;5111806;27;20047;-81
2022/04/21 11:11:08;;;;;;;4.93;3.10;;;17.10;54.70;;;;;;5103639;27;20050;-81
2022/04/21 11:14:03;;;;;;;4.97;3.20;;;17.20;55.30;;;;;;5114120;27;20049;-75
2022/04/21 11:16:45;;;;;;;4.70;2.95;;;17.40;55.90;;;;;;5099419;27;20050;-78
2022/04/21 11:19:29;;;;;;;4.90;3.05;;;17.50;54.60;;;;;;5121719;27;20062;-80
2022/04/21 11:22:05;;;;;;;6.53;3.08;;;17.30;54.50;;;;;;5104022;27;20051;-80
2022/04/21 11:25:07;;;;;;;5.53;3.35;;;17.30;55.00;;;;;;5120390;27;20752;-76
2022/04/21 11:27:42;;;;;;;5.35;3.70;;;17.30;54.90;;;;;;5042843;28;20055;-78
2022/04/21 11:30:11;;;;;;;6.47;3.63;;;17.30;56.30;;;;;;5112047;27;20099;-81
2022/04/21 11:32:52;;;;;;;6.80;3.40;;;17.30;56.30;;;;;;5101343;27;20058;-79
2022/04/21 11:35:22;;;;;;;4.57;3.28;;;17.30;55.00;;;;;;5101035;27;20108;-80
2022/04/21 11:37:48;;;;;;;5.72;3.78;;;17.30;55.50;;;;;;5122769;27;20375;-76
2022/04/21 11:40:38;;;;;;;4.57;3.60;;;17.40;55.00;;;;;;5124826;27;20097;-76
2022/04/21 11:43:16;;;;;;;6.45;3.30;;;17.40;54.90;;;;;;5093223;27;20048;-79
2022/04/21 11:46:14;;;;;;;5.97;3.38;;;17.30;55.60;;;;;;5122202;27;20102;-79
2022/04/21 11:48:41;;;;;;;3.92;2.65;;;17.40;54.80;;;;;;5126824;27;20539;-80
2022/04/21 11:51:12;;;;;;;4.97;3.28;;;17.30;54.60;;;;;;5079074;27;20133;-80
2022/04/21 11:53:41;;;;;;;5.45;2.97;;;17.40;56.00;;;;;;5087875;27;20406;-79
2022/04/21 11:56:11;;;;;;;4.18;3.30;;;17.60;55.70;;;;;;5105405;27;20500;-77
2022/04/21 11:58:41;;;;;;;5.50;3.10;;;17.90;55.00;;;;;;5100937;27;20043;-78
2022/04/21 12:06:45;;;;;;;5.38;3.70;;;17.80;53.90;;;;;;5109427;27;20063;-79
2022/04/21 12:09:19;;;;;;;;;;;17.80;53.80;;;;;;5109325;27;20119;-78
2022/04/21 12:11:54;;;;;;;4.43;2.85;;;17.70;54.20;;;;;;5109723;27;19919;-80
2022/04/21 12:14:21;;;;;;;4.25;2.70;;;17.70;53.30;;;;;;5108697;27;20138;-80
2022/04/21 12:16:52;;;;;;;11.27;3.50;;;17.70;52.70;;;;;;5107731;27;20053;-77
2022/04/21 12:19:33;;;;;;;5.47;3.50;;;17.70;53.10;;;;;;5104725;27;20118;-77
2022/04/21 12:21:58;;;;;;;;;;;17.60;52.20;;;;;;5094485;27;21414;-80
2022/04/21 12:24:50;;;;;;;7.05;3.17;;;17.60;53.50;;;;;;5128287;27;20237;-75
2022/04/21 12:27:28;;;;;;;5.50;3.50;;;17.70;52.80;;;;;;5093562;27;20042;-80
2022/04/21 12:29:58;;;;;;;5.53;3.58;;;17.60;54.40;;;;;;5123938;27;20047;-81
2022/04/21 12:32:32;;;;;;;6.85;4.15;;;17.70;53.80;;;;;;5128076;27;20058;-80
2022/04/21 12:35:01;;;;;;;9.68;4.45;;;17.80;54.40;;;;;;5091391;27;20070;-78
2022/04/21 12:37:40;;;;;;;5.53;4.13;;;17.70;54.90;;;;;;5109133;27;20511;-79
2022/04/21 12:40:14;;;;;;;6.43;4.10;;;17.80;55.80;;;;;;5109962;27;20432;-77
2022/04/21 12:42:40;;;;;;;6.80;3.83;;;17.90;56.00;;;;;;5121078;27;20110;-82
2022/04/21 12:45:08;;;;;;;6.97;4.30;;;18.00;55.90;;;;;;5127990;27;20057;-82
2022/04/21 12:47:47;;;;;;;7.22;4.03;;;18.10;55.10;;;;;;5105349;27;20331;-81
2022/04/21 12:50:23;;;;;;;5.85;4.30;;;18.10;55.50;;;;;;5107680;27;20182;-80
2022/04/21 12:52:55;;;;;;;6.82;4.20;;;18.20;54.50;;;;;;5123117;27;20045;-81
2022/04/21 12:55:21;;;;;;;5.55;3.85;;;18.20;55.10;;;;;;5127872;27;20054;-78
2022/04/21 12:58:10;;;;;;;8.48;4.70;;;18.10;54.40;;;;;;5125930;27;20076;-81
2022/04/21 13:00:45;;;;;;;6.68;4.65;;;18.00;54.50;;;;;;5123287;27;20123;-78
2022/04/21 13:03:14;;;;;;;6.22;4.25;;;18.10;54.20;;;;;;5124914;27;20045;-80
2022/04/21 13:05:49;;;;;;;7.53;4.03;;;18.10;55.30;;;;;;5088517;27;20161;-78
2022/04/21 13:08:15;;;;;;;6.78;4.57;;;18.20;55.40;;;;;;5124612;27;20043;-79
2022/04/21 13:10:44;;;;;;;6.45;4.78;;;18.30;55.00;;;;;;5111084;27;20274;-80
2022/04/21 13:13:09;;;;;;;7.30;4.30;;;18.20;54.60;;;;;;5091643;27;20051;-81
2022/04/21 13:15:36;;;;;;;7.20;4.63;;;18.40;54.90;;;;;;5095737;27;20034;-80
2022/04/21 13:18:05;;;;;;;7.07;5.00;;;18.40;53.80;;;;;;5089385;27;20044;-80
2022/04/21 13:23:16;;;;;;;9.88;4.93;;;18.20;54.60;;;;;;5127916;27;20054;-78
2022/04/21 13:25:42;;;;;;;7.43;5.07;;;18.20;54.90;;;;;;5148868;27;20041;-80
2022/04/21 13:28:09;;;;;;;8.43;4.95;;;18.20;55.30;;;;;;5127089;27;20034;-79
2022/04/21 13:30:35;;;;;;;8.27;4.18;;;18.30;54.40;;;;;;5112560;27;20473;-81
2022/04/21 13:35:48;;;;;;;6.22;4.88;;;18.40;55.10;;;;;;5112746;27;20070;-81
2022/04/21 13:38:16;;;;;;;6.75;5.35;;;18.50;54.60;;;;;;5093810;27;20116;-80
2022/04/21 13:40:43;;;;;;;8.68;5.90;;;18.60;54.90;;;;;;5148385;27;20042;-81
2022/04/21 13:43:08;;;;;;;6.55;5.40;;;18.70;54.50;;;;;;5111600;27;20074;-76
2022/04/21 13:45:38;;;;;;;7.63;4.95;;;18.70;54.80;;;;;;5113701;27;20520;-79
2022/04/21 13:48:06;;;;;;;8.35;5.25;;;18.60;53.60;;;;;;5110762;27;20042;-80
2022/04/21 13:50:33;;;;;;;6.63;4.60;;;18.40;53.20;;;;;;5133020;27;20139;-80
2022/04/21 13:52:59;;;;;;;6.68;4.88;;;18.20;55.30;;;;;;5130165;27;20043;-78